Time;durP1;ratioP1;P1;durP2;ratioP2;P2;SDS_P1;SDS_P2;PMS_P1;PMS_P2;Temp;Humidity;BMP_temperature;BMP_pressure;BME280_temperature;BME280_humidity;BME280_pressure;Samples;Min_cycle;Max_cycle;Signal;HPM_P1;HPM_P2
2022/10/02 00:02:01;;;;;;;8.60;2.40;;;;;;;;;;5030631;28;20071;-62
2022/10/02 00:04:40;;;;;;;17.10;2.80;;;;;;;;;;5046327;28;20040;-62
2022/10/02 00:07:09;;;;;;;13.75;3.15;;;;;;;;;;5047336;28;20041;-62
2022/10/02 00:09:45;;;;;;;12.95;2.28;;;;;;;;;;5047245;28;20035;-62
2022/10/02 00:12:14;;;;;;;13.82;2.47;;;;;;;;;;5047266;28;20052;-62
2022/10/02 00:14:43;;;;;;;16.88;3.00;;;;;;;;;;5029000;28;20044;-62
2022/10/02 00:17:16;;;;;;;16.98;3.60;;;;;;;;;;5047778;28;20021;-62
2022/10/02 00:19:41;;;;;;;19.25;2.20;;;;;;;;;;5046227;28;20031;-62
2022/10/02 00:22:26;;;;;;;12.93;2.22;;;;;;;;;;5047502;28;20120;-62
2022/10/02 00:25:07;;;;;;;13.50;2.55;;;;;;;;;;5046636;28;20534;-64
2022/10/02 00:27:46;;;;;;;10.88;2.33;;;;;;;;;;5029489;28;20060;-62
2022/10/02 00:30:15;;;;;;;15.98;2.38;;;;;;;;;;5029312;28;20425;-62
2022/10/02 00:32:57;;;;;;;10.32;2.30;;;;;;;;;;5044168;28;20037;-62
2022/10/02 00:35:38;;;;;;;11.32;2.00;;;;;;;;;;5045744;28;20064;-62
2022/10/02 00:38:17;;;;;;;15.57;2.17;;;;;;;;;;5046334;28;20024;-62
2022/10/02 00:40:48;;;;;;;17.52;2.85;;;;;;;;;;5046262;28;20449;-62
2022/10/02 00:43:55;;;;;;;15.23;2.33;;;;;;;;;;5046677;28;20105;-62
2022/10/02 00:46:40;;;;;;;12.15;3.40;;;;;;;;;;5045325;28;20033;-62
2022/10/02 00:49:30;;;;;;;16.42;2.60;;;;;;;;;;5042139;28;20036;-62
2022/10/02 00:52:18;;;;;;;8.70;2.33;;;;;;;;;;5046606;28;20048;-62
2022/10/02 00:55:02;;;;;;;11.10;2.47;;;;;;;;;;5011611;28;20033;-62
2022/10/02 00:57:27;;;;;;;;;;;;;;;;;;5040601;28;20034;-62
2022/10/02 00:59:53;;;;;;;10.80;2.30;;;;;;;;;;5025578;28;20313;-62
2022/10/02 01:02:30;;;;;;;13.85;1.90;;;;;;;;;;5029382;28;20025;-62
2022/10/02 01:04:59;;;;;;;21.67;2.58;;;;;;;;;;5047489;28;20021;-62
2022/10/02 01:07:24;;;;;;;9.27;2.22;;;;;;;;;;5051370;28;20040;-62
2022/10/02 01:09:50;;;;;;;10.85;2.17;;;;;;;;;;5046291;28;20033;-62
2022/10/02 01:12:15;;;;;;;17.27;2.00;;;;;;;;;;5046276;28;20052;-63
2022/10/02 01:14:41;;;;;;;15.95;2.70;;;;;;;;;;5046001;28;20044;-62
2022/10/02 01:17:22;;;;;;;14.70;2.38;;;;;;;;;;5044181;28;20020;-62
2022/10/02 01:19:49;;;;;;;19.92;2.55;;;;;;;;;;5056073;28;20028;-62
2022/10/02 01:22:30;;;;;;;8.40;2.30;;;;;;;;;;5048535;28;20062;-62
2022/10/02 01:24:56;;;;;;;14.02;2.80;;;;;;;;;;5064085;28;20488;-62
2022/10/02 01:27:23;;;;;;;13.48;2.20;;;;;;;;;;5066579;28;20730;-62
2022/10/02 01:29:58;;;;;;;15.63;2.95;;;;;;;;;;5065897;28;20071;-62
2022/10/02 01:32:25;;;;;;;15.05;2.42;;;;;;;;;;5065966;28;20033;-62
2022/10/02 01:34:52;;;;;;;17.42;2.75;;;;;;;;;;5066676;28;20028;-62
2022/10/02 01:37:19;;;;;;;15.02;3.28;;;;;;;;;;5048519;28;20543;-62
2022/10/02 01:39:44;;;;;;;11.63;2.40;;;;;;;;;;5055250;28;20124;-62
2022/10/02 01:42:10;;;;;;;14.98;2.40;;;;;;;;;;5046111;28;20124;-62
2022/10/02 01:44:36;;;;;;;9.23;2.42;;;;;;;;;;5046249;28;20090;-62
2022/10/02 01:47:09;;;;;;;16.15;2.80;;;;;;;;;;5046145;28;20029;-62
2022/10/02 01:49:55;;;;;;;13.57;2.35;;;;;;;;;;5037729;28;20029;-62
2022/10/02 01:52:41;;;;;;;14.40;2.45;;;;;;;;;;5028286;28;20553;-62
2022/10/02 01:55:30;;;;;;;18.20;2.72;;;;;;;;;;5046138;28;20584;-62
2022/10/02 01:58:09;;;;;;;17.10;3.30;;;;;;;;;;5046137;28;20120;-62
2022/10/02 02:00:58;;;;;;;14.48;2.85;;;;;;;;;;5045514;28;20040;-61
2022/10/02 02:04:01;;;;;;;8.05;2.40;;;;;;;;;;5030869;28;20041;-62
2022/10/02 02:06:40;;;;;;;10.75;2.40;;;;;;;;;;5049165;28;20052;-62
2022/10/02 02:09:27;;;;;;;13.32;3.17;;;;;;;;;;5049917;28;20037;-62
2022/10/02 02:12:01;;;;;;;15.70;2.40;;;;;;;;;;5053523;28;20585;-62
2022/10/02 02:14:34;;;;;;;11.90;2.22;;;;;;;;;;5062389;28;20048;-62
2022/10/02 02:17:13;;;;;;;16.10;2.20;;;;;;;;;;5070083;28;20497;-62
2022/10/02 02:20:01;;;;;;;13.68;2.35;;;;;;;;;;5069863;28;20564;-62
2022/10/02 02:22:29;;;;;;;19.75;2.55;;;;;;;;;;5032091;28;20050;-62
2022/10/02 02:25:08;;;;;;;17.48;3.10;;;;;;;;;;5046450;28;20127;-62
2022/10/02 02:27:38;;;;;;;11.65;1.90;;;;;;;;;;5049615;28;20175;-62
2022/10/02 02:30:07;;;;;;;10.82;2.22;;;;;;;;;;5041720;28;20540;-62
2022/10/02 02:32:35;;;;;;;11.00;2.58;;;;;;;;;;5048647;28;20044;-62
2022/10/02 02:35:08;;;;;;;19.25;2.03;;;;;;;;;;5031143;28;20036;-62
2022/10/02 02:37:37;;;;;;;11.35;2.03;;;;;;;;;;5049795;28;20036;-62
2022/10/02 02:40:11;;;;;;;14.98;1.95;;;;;;;;;;5052032;28;20349;-62
2022/10/02 02:42:41;;;;;;;9.02;1.95;;;;;;;;;;5049773;28;20060;-62
2022/10/02 02:45:20;;;;;;;13.70;1.80;;;;;;;;;;5048979;28;20041;-62
2022/10/02 02:47:50;;;;;;;9.50;2.03;;;;;;;;;;5044532;28;20045;-62
2022/10/02 02:50:22;;;;;;;14.55;2.28;;;;;;;;;;5045478;28;20056;-62
2022/10/02 02:52:57;;;;;;;17.77;1.98;;;;;;;;;;5049933;28;20032;-63
2022/10/02 02:55:25;;;;;;;8.65;1.65;;;;;;;;;;5048203;28;20041;-62
2022/10/02 02:58:01;;;;;;;12.18;2.17;;;;;;;;;;5049243;28;20041;-62
2022/10/02 03:00:26;;;;;;;11.27;2.45;;;;;;;;;;5048749;28;20071;-62
2022/10/02 03:02:53;;;;;;;11.88;2.58;;;;;;;;;;5048535;28;20057;-62
2022/10/02 03:05:20;;;;;;;11.75;2.30;;;;;;;;;;5048718;28;20490;-62
2022/10/02 03:07:54;;;;;;;19.50;2.88;;;;;;;;;;5048700;28;20025;-62
2022/10/02 03:10:54;;;;;;;16.70;2.67;;;;;;;;;;5048373;28;20037;-62
2022/10/02 03:13:37;;;;;;;15.30;2.50;;;;;;;;;;5047751;28;20121;-62
2022/10/02 03:16:11;;;;;;;13.57;2.78;;;;;;;;;;5048431;28;20721;-62
2022/10/02 03:18:50;;;;;;;8.48;2.30;;;;;;;;;;5048927;28;20486;-62
2022/10/02 03:21:25;;;;;;;13.48;2.70;;;;;;;;;;5047708;28;20033;-62
2022/10/02 03:24:39;;;;;;;13.38;2.45;;;;;;;;;;5046089;28;20045;-62
2022/10/02 03:27:13;;;;;;;7.22;2.30;;;;;;;;;;5017505;28;20070;-62
2022/10/02 03:29:48;;;;;;;18.20;3.03;;;;;;;;;;5048027;28;20037;-62
2022/10/02 03:32:16;;;;;;;17.05;3.00;;;;;;;;;;5047684;28;20029;-62
2022/10/02 03:34:42;;;;;;;15.02;3.90;;;;;;;;;;5048438;28;20533;-62
2022/10/02 03:37:07;;;;;;;21.60;3.45;;;;;;;;;;5047925;28;20053;-62
2022/10/02 03:39:33;;;;;;;19.33;3.50;;;;;;;;;;5029952;28;20076;-62
2022/10/02 03:41:59;;;;;;;19.17;2.90;;;;;;;;;;5048282;28;20506;-62
2022/10/02 03:44:24;;;;;;;16.23;3.47;;;;;;;;;;5048264;28;20033;-62
2022/10/02 03:46:50;;;;;;;19.52;2.72;;;;;;;;;;5032968;28;20078;-62
2022/10/02 03:49:15;;;;;;;10.68;2.47;;;;;;;;;;5067928;28;20082;-62
2022/10/02 03:51:40;;;;;;;12.07;2.40;;;;;;;;;;5068173;28;20064;-62
2022/10/02 03:54:18;;;;;;;13.90;2.60;;;;;;;;;;5067927;28;20036;-62
2022/10/02 03:56:50;;;;;;;10.82;2.17;;;;;;;;;;5067811;28;20044;-62
2022/10/02 03:59:39;;;;;;;12.85;3.08;;;;;;;;;;5067515;28;20493;-62
2022/10/02 04:02:15;;;;;;;7.72;2.35;;;;;;;;;;5067823;28;20085;-62
2022/10/02 04:04:49;;;;;;;7.80;2.30;;;;;;;;;;5067878;28;20021;-62
2022/10/02 04:07:22;;;;;;;14.35;2.25;;;;;;;;;;5067262;28;20037;-62
2022/10/02 04:09:57;;;;;;;7.17;2.00;;;;;;;;;;5067685;28;20040;-62
2022/10/02 04:12:28;;;;;;;15.32;3.00;;;;;;;;;;5067501;28;20058;-62
2022/10/02 04:15:03;;;;;;;8.88;2.17;;;;;;;;;;5046721;28;20037;-62
2022/10/02 04:17:42;;;;;;;10.88;2.13;;;;;;;;;;5047552;28;20051;-62
2022/10/02 04:20:19;;;;;;;13.32;2.72;;;;;;;;;;5046359;28;20459;-62
2022/10/02 04:22:51;;;;;;;10.23;2.30;;;;;;;;;;5040680;28;20456;-62
2022/10/02 04:25:20;;;;;;;16.20;2.95;;;;;;;;;;5066631;28;20041;-62
2022/10/02 04:28:06;;;;;;;15.48;2.53;;;;;;;;;;5066260;28;20032;-62
2022/10/02 04:30:32;;;;;;;12.68;2.05;;;;;;;;;;5064143;28;20101;-62
2022/10/02 04:33:11;;;;;;;8.35;2.08;;;;;;;;;;5055125;28;20045;-62
2022/10/02 04:36:08;;;;;;;13.10;2.10;;;;;;;;;;5067400;28;20070;-62
2022/10/02 04:38:44;;;;;;;11.77;2.35;;;;;;;;;;5066091;28;20045;-62
2022/10/02 04:41:31;;;;;;;11.82;2.25;;;;;;;;;;5041148;28;20060;-62
2022/10/02 04:44:29;;;;;;;9.40;1.85;;;;;;;;;;5047386;28;20016;-62
2022/10/02 04:47:46;;;;;;;10.85;2.05;;;;;;;;;;5047031;28;20067;-62
2022/10/02 04:50:40;;;;;;;11.15;1.92;;;;;;;;;;5041634;28;20094;-61
2022/10/02 04:53:19;;;;;;;7.60;2.08;;;;;;;;;;5066492;28;20025;-62
2022/10/02 04:55:54;;;;;;;8.98;2.13;;;;;;;;;;5067157;28;20024;-61
2022/10/02 04:58:28;;;;;;;6.93;1.95;;;;;;;;;;5066521;28;20045;-62
2022/10/02 05:01:07;;;;;;;11.20;2.38;;;;;;;;;;5066476;28;20048;-62
2022/10/02 05:03:53;;;;;;;4.32;1.85;;;;;;;;;;5065932;28;20039;-62
2022/10/02 05:06:35;;;;;;;9.70;2.10;;;;;;;;;;5066466;28;20048;-62
2022/10/02 05:09:11;;;;;;;11.57;1.85;;;;;;;;;;5066363;28;20039;-62
2022/10/02 05:11:50;;;;;;;8.05;1.58;;;;;;;;;;5043956;28;20041;-62
2022/10/02 05:14:34;;;;;;;6.28;1.65;;;;;;;;;;5045937;28;20103;-62
2022/10/02 05:17:22;;;;;;;5.72;1.35;;;;;;;;;;5046432;28;20021;-62
2022/10/02 05:20:16;;;;;;;12.15;1.73;;;;;;;;;;5046701;28;20071;-62
2022/10/02 05:23:04;;;;;;;5.63;1.60;;;;;;;;;;5046279;28;20045;-62
2022/10/02 05:25:55;;;;;;;7.07;1.42;;;;;;;;;;5017007;28;20126;-62
2022/10/02 05:28:36;;;;;;;5.97;1.42;;;;;;;;;;5046064;28;20044;-62
2022/10/02 05:31:40;;;;;;;9.07;1.27;;;;;;;;;;5046376;28;20537;-62
2022/10/02 05:34:34;;;;;;;8.80;1.65;;;;;;;;;;5027495;28;20119;-62
2022/10/02 05:37:37;;;;;;;4.45;1.20;;;;;;;;;;5039628;28;20072;-62
2022/10/02 05:40:11;;;;;;;6.30;1.45;;;;;;;;;;5054699;28;20526;-62
2022/10/02 05:43:07;;;;;;;4.55;1.85;;;;;;;;;;5049859;28;20037;-62
2022/10/02 05:45:43;;;;;;;2.90;1.35;;;;;;;;;;5019130;28;20040;-62
2022/10/02 05:48:17;;;;;;;6.95;1.48;;;;;;;;;;5032232;28;20044;-63
2022/10/02 05:50:48;;;;;;;11.27;1.50;;;;;;;;;;5048004;28;20041;-62
2022/10/02 05:53:32;;;;;;;4.38;1.48;;;;;;;;;;5050372;28;20722;-63
2022/10/02 05:56:11;;;;;;;4.57;1.40;;;;;;;;;;5050601;28;20024;-62
2022/10/02 05:59:02;;;;;;;7.85;1.27;;;;;;;;;;5050035;28;20052;-62
2022/10/02 06:01:32;;;;;;;5.03;1.15;;;;;;;;;;5049854;28;20037;-62
2022/10/02 06:04:05;;;;;;;4.55;1.40;;;;;;;;;;5059690;28;20048;-62
2022/10/02 06:06:47;;;;;;;4.50;1.20;;;;;;;;;;5070147;28;20131;-63
2022/10/02 06:09:19;;;;;;;5.53;1.95;;;;;;;;;;5051538;28;20522;-62
2022/10/02 06:11:59;;;;;;;6.50;1.20;;;;;;;;;;5069694;28;20094;-62
2022/10/02 06:14:39;;;;;;;4.35;1.52;;;;;;;;;;5069428;28;20779;-62
2022/10/02 06:17:19;;;;;;;6.93;1.60;;;;;;;;;;5051635;28;20499;-62
2022/10/02 06:20:01;;;;;;;8.73;1.77;;;;;;;;;;5055961;28;20021;-62
2022/10/02 06:22:31;;;;;;;4.60;1.50;;;;;;;;;;5029572;28;20561;-62
2022/10/02 06:25:21;;;;;;;3.42;1.40;;;;;;;;;;5029432;28;20041;-62
2022/10/02 06:27:54;;;;;;;6.00;1.60;;;;;;;;;;5029749;28;20132;-63
2022/10/02 06:30:20;;;;;;;4.53;1.20;;;;;;;;;;5029509;28;20029;-62
2022/10/02 06:33:07;;;;;;;4.78;1.38;;;;;;;;;;5029163;28;20180;-62
2022/10/02 06:35:33;;;;;;;3.92;1.27;;;;;;;;;;5029161;28;20037;-63
2022/10/02 06:38:09;;;;;;;7.40;1.65;;;;;;;;;;5029653;28;20025;-62
2022/10/02 06:40:46;;;;;;;5.25;1.75;;;;;;;;;;5044522;28;20041;-62
2022/10/02 06:43:40;;;;;;;4.80;1.30;;;;;;;;;;5046660;28;20041;-62
2022/10/02 06:46:11;;;;;;;6.28;1.48;;;;;;;;;;5049119;28;20120;-62
2022/10/02 06:48:47;;;;;;;10.75;1.70;;;;;;;;;;5048981;28;20598;-62
2022/10/02 06:51:36;;;;;;;6.18;1.40;;;;;;;;;;5047077;28;20041;-62
2022/10/02 06:54:18;;;;;;;3.40;1.27;;;;;;;;;;5049091;28;20628;-62
2022/10/02 06:56:56;;;;;;;6.00;1.80;;;;;;;;;;5048911;28;20644;-62
2022/10/02 07:00:10;;;;;;;4.22;1.20;;;;;;;;;;5048930;28;20044;-62
2022/10/02 07:02:39;;;;;;;4.93;1.30;;;;;;;;;;5018605;28;20037;-62
2022/10/02 07:05:27;;;;;;;3.25;1.35;;;;;;;;;;5055749;28;20124;-62
2022/10/02 07:08:01;;;;;;;2.58;1.50;;;;;;;;;;5047815;28;20025;-62
2022/10/02 07:10:56;;;;;;;4.07;1.38;;;;;;;;;;5035197;28;20138;-62
2022/10/02 07:13:31;;;;;;;5.03;1.33;;;;;;;;;;5043731;28;20033;-62
2022/10/02 07:16:07;;;;;;;5.55;1.20;;;;;;;;;;5036117;28;20232;-62
2022/10/02 07:18:51;;;;;;;3.00;1.60;;;;;;;;;;5042714;28;20041;-62
2022/10/02 07:21:45;;;;;;;;;;;;;;;;;;5025414;28;20048;-62
2022/10/02 07:24:25;;;;;;;2.50;1.10;;;;;;;;;;5033778;28;19956;-62
2022/10/02 07:27:10;;;;;;;2.10;1.55;;;;;;;;;;5027343;28;20083;-62
2022/10/02 07:29:45;;;;;;;11.27;1.90;;;;;;;;;;5026713;28;20037;-62
2022/10/02 07:32:25;;;;;;;6.82;2.08;;;;;;;;;;5027840;28;20541;-62
2022/10/02 07:34:59;;;;;;;8.90;1.60;;;;;;;;;;5027963;28;20040;-62
2022/10/02 07:38:03;;;;;;;4.68;1.30;;;;;;;;;;5035462;28;20044;-62
2022/10/02 07:40:48;;;;;;;3.80;1.33;;;;;;;;;;5015370;28;20526;-62
2022/10/02 07:44:07;;;;;;;1.98;1.35;;;;;;;;;;5040240;28;20048;-62
2022/10/02 07:46:44;;;;;;;2.90;1.80;;;;;;;;;;4980066;28;20129;-62
2022/10/02 07:49:38;;;;;;;3.90;1.40;;;;;;;;;;5044994;28;20038;-62
2022/10/02 07:52:24;;;;;;;3.60;1.15;;;;;;;;;;5046874;28;20033;-62
2022/10/02 07:54:56;;;;;;;3.17;1.40;;;;;;;;;;5022249;28;20506;-62
2022/10/02 07:57:51;;;;;;;7.28;2.10;;;;;;;;;;5036435;28;21246;-62
2022/10/02 08:00:18;;;;;;;5.45;1.27;;;;;;;;;;5022128;28;20043;-62
2022/10/02 08:03:09;;;;;;;2.67;1.10;;;;;;;;;;5030446;28;20121;-62
2022/10/02 08:05:45;;;;;;;3.00;1.60;;;;;;;;;;5046475;28;20435;-62
2022/10/02 08:08:40;;;;;;;3.65;1.27;;;;;;;;;;5041979;28;20116;-62
2022/10/02 08:11:37;;;;;;;2.60;1.20;;;;;;;;;;5034751;28;20041;-62
2022/10/02 08:14:31;;;;;;;1.52;1.17;;;;;;;;;;5005293;28;20509;-62
2022/10/02 08:17:07;;;;;;;4.22;1.40;;;;;;;;;;5035420;28;20645;-62
2022/10/02 08:19:49;;;;;;;3.72;1.27;;;;;;;;;;5032754;28;20045;-62
2022/10/02 08:22:24;;;;;;;6.70;1.45;;;;;;;;;;5035587;28;20068;-62
2022/10/02 08:25:01;;;;;;;2.38;1.25;;;;;;;;;;5038110;28;20071;-62
2022/10/02 08:28:12;;;;;;;3.28;1.52;;;;;;;;;;5038477;28;20418;-63
2022/10/02 08:30:37;;;;;;;2.75;1.17;;;;;;;;;;4989807;28;20165;-63
2022/10/02 08:33:14;;;;;;;4.03;1.48;;;;;;;;;;4988948;28;20073;-62
2022/10/02 08:36:02;;;;;;;4.35;1.25;;;;;;;;;;5013114;28;20132;-62
2022/10/02 08:38:44;;;;;;;1.35;1.00;;;;;;;;;;5026274;28;20044;-62
2022/10/02 08:41:16;;;;;;;4.50;1.30;;;;;;;;;;5043982;28;20029;-62
2022/10/02 08:44:12;;;;;;;3.50;1.13;;;;;;;;;;5033621;28;20041;-62
2022/10/02 08:47:04;;;;;;;3.47;1.20;;;;;;;;;;5034330;28;20118;-62
2022/10/02 08:49:44;;;;;;;2.35;1.23;;;;;;;;;;5045936;28;20037;-62
2022/10/02 08:52:28;;;;;;;4.25;1.20;;;;;;;;;;5044532;28;20043;-62
2022/10/02 08:55:05;;;;;;;2.92;1.40;;;;;;;;;;5041492;28;20041;-62
2022/10/02 08:57:43;;;;;;;5.47;1.40;;;;;;;;;;5042862;28;20051;-62
2022/10/02 09:00:27;;;;;;;3.15;1.20;;;;;;;;;;5043089;28;20123;-62
2022/10/02 09:03:05;;;;;;;2.00;1.23;;;;;;;;;;5038065;28;20037;-62
2022/10/02 09:05:30;;;;;;;2.63;1.13;;;;;;;;;;5042763;28;20509;-62
2022/10/02 09:08:13;;;;;;;2.33;1.30;;;;;;;;;;5035396;28;20034;-62
2022/10/02 09:11:03;;;;;;;7.77;1.73;;;;;;;;;;5022132;28;20045;-62
2022/10/02 09:13:48;;;;;;;3.15;1.50;;;;;;;;;;5032929;28;20048;-62
2022/10/02 09:16:31;;;;;;;4.43;1.80;;;;;;;;;;5025332;28;20129;-62
2022/10/02 09:19:29;;;;;;;3.92;1.73;;;;;;;;;;5022502;28;20033;-63
2022/10/02 09:22:06;;;;;;;5.28;1.50;;;;;;;;;;5041317;28;20054;-63
2022/10/02 09:24:51;;;;;;;3.80;1.40;;;;;;;;;;5043296;28;20072;-62
2022/10/02 09:27:22;;;;;;;5.53;1.50;;;;;;;;;;5040296;28;20040;-62
2022/10/02 09:30:28;;;;;;;7.38;1.80;;;;;;;;;;5046578;28;20497;-62
2022/10/02 09:33:14;;;;;;;4.90;1.40;;;;;;;;;;5046433;28;20037;-62
2022/10/02 09:36:00;;;;;;;2.90;2.00;;;;;;;;;;5046598;28;20413;-62
2022/10/02 09:38:44;;;;;;;2.72;1.60;;;;;;;;;;5043241;28;20075;-62
2022/10/02 09:41:19;;;;;;;;;;;;;;;;;;5025775;28;20040;-62
2022/10/02 09:44:09;;;;;;;4.13;1.35;;;;;;;;;;5035928;28;19986;-62
2022/10/02 09:47:11;;;;;;;2.65;1.65;;;;;;;;;;5044880;28;20048;-62
2022/10/02 09:49:56;;;;;;;3.10;1.50;;;;;;;;;;5045432;28;20048;-62
2022/10/02 09:52:44;;;;;;;6.10;1.70;;;;;;;;;;5045672;28;20046;-62
2022/10/02 09:55:48;;;;;;;4.15;1.80;;;;;;;;;;5045441;28;20051;-62
2022/10/02 09:58:23;;;;;;;3.58;1.60;;;;;;;;;;5045259;28;20620;-62
2022/10/02 10:01:15;;;;;;;4.13;1.92;;;;;;;;;;5045664;28;20045;-63
2022/10/02 10:03:46;;;;;;;4.95;1.95;;;;;;;;;;5045523;28;20120;-62
2022/10/02 10:06:57;;;;;;;4.00;2.17;;;;;;;;;;5042762;28;20533;-62
2022/10/02 10:09:50;;;;;;;4.95;1.83;;;;;;;;;;5042907;28;20048;-62
2022/10/02 10:12:40;;;;;;;4.32;1.50;;;;;;;;;;5019881;28;20037;-62
2022/10/02 10:15:16;;;;;;;5.72;1.55;;;;;;;;;;5036474;28;20043;-62
2022/10/02 10:18:18;;;;;;;4.50;1.60;;;;;;;;;;5045581;28;20082;-62
2022/10/02 10:21:05;;;;;;;2.45;1.48;;;;;;;;;;5045143;28;20033;-63
2022/10/02 10:23:59;;;;;;;3.55;1.60;;;;;;;;;;5045123;28;20025;-62
2022/10/02 10:26:43;;;;;;;3.08;1.10;;;;;;;;;;5046754;28;20033;-62
2022/10/02 10:29:14;;;;;;;4.00;1.52;;;;;;;;;;5027094;28;20037;-62
2022/10/02 10:31:58;;;;;;;3.72;1.40;;;;;;;;;;5042472;28;20713;-63
2022/10/02 10:34:52;;;;;;;2.95;1.27;;;;;;;;;;5047575;28;20693;-62
2022/10/02 10:40:31;;;;;;;2.50;1.05;;;;;;;;;;5042844;28;20063;-62
2022/10/02 10:43:13;;;;;;;4.40;1.42;;;;;;;;;;5046261;28;20154;-62
2022/10/02 10:46:01;;;;;;;2.78;1.20;;;;;;;;;;5047221;28;20052;-63
2022/10/02 10:48:41;;;;;;;1.75;1.05;;;;;;;;;;5048386;28;20040;-63
2022/10/02 10:51:15;;;;;;;2.72;1.20;;;;;;;;;;5046527;28;20036;-62
2022/10/02 10:53:56;;;;;;;2.58;1.50;;;;;;;;;;5048130;28;20037;-63
2022/10/02 10:56:44;;;;;;;1.20;0.93;;;;;;;;;;5044112;28;20067;-63
2022/10/02 10:59:28;;;;;;;2.17;1.30;;;;;;;;;;5028926;28;20432;-62
2022/10/02 11:02:25;;;;;;;2.10;1.27;;;;;;;;;;5047927;28;20037;-63
2022/10/02 11:05:14;;;;;;;2.00;1.13;;;;;;;;;;5050128;28;20048;-62
2022/10/02 11:07:39;;;;;;;2.97;1.45;;;;;;;;;;5067779;28;20116;-63
2022/10/02 11:10:14;;;;;;;4.50;1.20;;;;;;;;;;5067443;28;20044;-68
2022/10/02 11:12:55;;;;;;;2.67;1.42;;;;;;;;;;5025955;28;20049;-67
2022/10/02 11:16:06;;;;;;;3.05;1.48;;;;;;;;;;5029324;28;20122;-66
2022/10/02 11:19:02;;;;;;;1.85;1.10;;;;;;;;;;5025782;28;20030;-67
2022/10/02 11:21:55;;;;;;;2.40;1.33;;;;;;;;;;5046768;28;20048;-67
2022/10/02 11:24:52;;;;;;;5.68;1.88;;;;;;;;;;5046707;28;20048;-67
2022/10/02 11:27:36;;;;;;;2.45;1.27;;;;;;;;;;5027595;28;20102;-66
2022/10/02 11:30:31;;;;;;;2.47;1.38;;;;;;;;;;5041096;28;20045;-67
2022/10/02 11:33:14;;;;;;;3.42;1.50;;;;;;;;;;5039276;28;20037;-68
2022/10/02 11:35:57;;;;;;;2.63;1.30;;;;;;;;;;5024436;28;20048;-67
2022/10/02 11:39:04;;;;;;;2.70;1.48;;;;;;;;;;5047131;28;20033;-67
2022/10/02 11:41:48;;;;;;;3.90;2.05;;;;;;;;;;5033828;28;20069;-68
2022/10/02 11:45:02;;;;;;;1.85;1.38;;;;;;;;;;5047541;28;20040;-69
2022/10/02 11:47:47;;;;;;;5.13;1.80;;;;;;;;;;4986141;28;20045;-67
2022/10/02 11:50:28;;;;;;;5.40;1.77;;;;;;;;;;5027276;28;20040;-68
2022/10/02 11:53:21;;;;;;;4.93;2.13;;;;;;;;;;5029255;28;20521;-70
2022/10/02 11:55:56;;;;;;;3.80;1.90;;;;;;;;;;5047413;28;20079;-67
2022/10/02 11:58:25;;;;;;;6.03;1.90;;;;;;;;;;5047483;28;20152;-73
2022/10/02 12:01:16;;;;;;;6.60;1.75;;;;;;;;;;5039092;28;20041;-66
2022/10/02 12:04:02;;;;;;;6.20;2.00;;;;;;;;;;5026675;28;20535;-67
2022/10/02 12:06:55;;;;;;;4.47;2.00;;;;;;;;;;5027620;28;20116;-66
2022/10/02 12:09:42;;;;;;;3.42;1.70;;;;;;;;;;5027530;28;20120;-67
2022/10/02 12:12:20;;;;;;;4.32;2.10;;;;;;;;;;5026967;28;20176;-67
2022/10/02 12:15:12;;;;;;;2.55;1.90;;;;;;;;;;5026987;28;20095;-67
2022/10/02 12:17:52;;;;;;;4.97;2.08;;;;;;;;;;5027644;28;20043;-66
2022/10/02 12:26:57;;;;;;;3.78;1.65;;;;;;;;;;5025690;28;20099;-67
2022/10/02 12:29:39;;;;;;;5.40;1.90;;;;;;;;;;5033072;28;20514;-67
2022/10/02 12:32:11;;;;;;;4.63;2.25;;;;;;;;;;5034489;28;20120;-67
2022/10/02 12:34:55;;;;;;;2.55;1.65;;;;;;;;;;5033723;28;20120;-66
2022/10/02 12:37:20;;;;;;;8.57;1.90;;;;;;;;;;5041360;28;20040;-66
2022/10/02 12:39:46;;;;;;;6.70;2.17;;;;;;;;;;5036896;28;20536;-67
2022/10/02 12:43:05;;;;;;;5.72;2.10;;;;;;;;;;5041910;28;20460;-66
2022/10/02 12:46:03;;;;;;;3.60;2.15;;;;;;;;;;4996201;28;20041;-66
2022/10/02 12:48:56;;;;;;;3.83;2.10;;;;;;;;;;5041605;28;20045;-66
2022/10/02 12:51:34;;;;;;;8.25;2.53;;;;;;;;;;5007737;28;20107;-66
2022/10/02 12:54:37;;;;;;;6.72;2.35;;;;;;;;;;5034354;28;20036;-67
2022/10/02 12:57:50;;;;;;;6.13;2.13;;;;;;;;;;5031606;28;20049;-66
2022/10/02 13:00:10;;;;;;;4.55;1.90;;;;;;;;;;5052278;28;20045;-66
2022/10/02 13:02:58;;;;;;;3.55;1.83;;;;;;;;;;5042280;28;20049;-66
2022/10/02 13:05:38;;;;;;;3.70;1.85;;;;;;;;;;5027797;28;20045;-67
2022/10/02 13:08:15;;;;;;;8.02;2.42;;;;;;;;;;5033931;28;20111;-66
2022/10/02 13:11:22;;;;;;;7.30;2.38;;;;;;;;;;5043858;28;20102;-66
2022/10/02 13:13:50;;;;;;;5.57;2.20;;;;;;;;;;4993948;28;20075;-66
2022/10/02 13:16:25;;;;;;;3.17;2.03;;;;;;;;;;5038825;28;20067;-66
2022/10/02 13:19:04;;;;;;;7.85;2.20;;;;;;;;;;5037999;28;20426;-67
2022/10/02 13:21:51;;;;;;;6.28;2.58;;;;;;;;;;5038876;28;20059;-67
2022/10/02 13:24:47;;;;;;;6.40;2.63;;;;;;;;;;5032401;28;20041;-66
2022/10/02 13:27:17;;;;;;;7.70;2.75;;;;;;;;;;5028924;28;20094;-65
2022/10/02 13:29:42;;;;;;;4.47;2.60;;;;;;;;;;5033521;28;20057;-66
2022/10/02 13:32:24;;;;;;;5.00;2.90;;;;;;;;;;5019772;28;20071;-67
2022/10/02 13:34:50;;;;;;;5.10;2.95;;;;;;;;;;5041022;28;20035;-66
2022/10/02 13:37:41;;;;;;;7.18;3.47;;;;;;;;;;5040689;28;20033;-67
2022/10/02 13:40:21;;;;;;;7.18;3.63;;;;;;;;;;5038775;28;20029;-66
2022/10/02 13:42:49;;;;;;;7.45;3.38;;;;;;;;;;5036864;28;20034;-67
2022/10/02 13:45:25;;;;;;;5.55;3.55;;;;;;;;;;5034152;28;20615;-66
2022/10/02 13:47:53;;;;;;;7.32;3.78;;;;;;;;;;5018223;28;20084;-66
2022/10/02 13:50:25;;;;;;;7.22;3.85;;;;;;;;;;5032522;28;20120;-66
2022/10/02 13:53:09;;;;;;;6.88;3.75;;;;;;;;;;5033555;28;20393;-66
2022/10/02 13:55:45;;;;;;;8.25;4.45;;;;;;;;;;5014638;28;20053;-67
2022/10/02 13:58:36;;;;;;;7.80;4.28;;;;;;;;;;5033119;28;20041;-67
2022/10/02 14:01:09;;;;;;;13.35;5.18;;;;;;;;;;5037262;28;20033;-66
2022/10/02 14:04:13;;;;;;;8.10;4.93;;;;;;;;;;5038385;28;20053;-66
2022/10/02 14:06:44;;;;;;;9.77;5.22;;;;;;;;;;5037155;28;20041;-67
2022/10/02 14:09:32;;;;;;;9.60;4.72;;;;;;;;;;5032968;28;20060;-67
2022/10/02 14:12:13;;;;;;;10.27;5.38;;;;;;;;;;5030066;28;20048;-66
2022/10/02 14:14:48;;;;;;;14.20;6.18;;;;;;;;;;5039162;28;20531;-66
2022/10/02 14:17:30;;;;;;;12.07;5.55;;;;;;;;;;5041103;28;20024;-66
2022/10/02 14:20:23;;;;;;;10.10;5.10;;;;;;;;;;5045169;28;20102;-68
2022/10/02 14:22:49;;;;;;;11.45;6.03;;;;;;;;;;5044280;28;20045;-67
2022/10/02 14:25:35;;;;;;;12.85;5.65;;;;;;;;;;5053522;28;20064;-67
2022/10/02 14:28:28;;;;;;;15.00;6.20;;;;;;;;;;5042090;28;20514;-67
2022/10/02 14:30:54;;;;;;;13.80;6.30;;;;;;;;;;5037519;28;20042;-67
2022/10/02 14:33:19;;;;;;;13.90;5.63;;;;;;;;;;5042201;28;20466;-67
2022/10/02 14:36:06;;;;;;;18.10;6.32;;;;;;;;;;5043387;28;20049;-67
2022/10/02 14:38:34;;;;;;;13.75;5.95;;;;;;;;;;5044039;28;20064;-67
2022/10/02 14:41:12;;;;;;;12.45;6.03;;;;;;;;;;5040695;28;20040;-67
2022/10/02 14:43:41;;;;;;;11.35;4.90;;;;;;;;;;5024297;28;20111;-67
2022/10/02 14:46:24;;;;;;;10.80;5.60;;;;;;;;;;5041104;28;20087;-67
2022/10/02 14:49:04;;;;;;;15.98;5.90;;;;;;;;;;5021639;28;20048;-67
2022/10/02 14:51:57;;;;;;;12.35;5.53;;;;;;;;;;5025066;28;20056;-67
2022/10/02 14:54:46;;;;;;;12.77;5.90;;;;;;;;;;5043547;28;20592;-67
2022/10/02 14:57:14;;;;;;;12.65;6.03;;;;;;;;;;5035128;28;20033;-67
2022/10/02 14:59:40;;;;;;;16.80;5.80;;;;;;;;;;5041979;28;20156;-67
2022/10/02 15:02:07;;;;;;;12.18;5.50;;;;;;;;;;5040504;28;20139;-67
2022/10/02 15:04:51;;;;;;;13.15;5.75;;;;;;;;;;5043049;28;20078;-67
2022/10/02 15:07:22;;;;;;;13.35;6.03;;;;;;;;;;5043311;28;20593;-66
2022/10/02 15:09:51;;;;;;;12.75;5.70;;;;;;;;;;5021161;28;20044;-66
2022/10/02 15:12:48;;;;;;;18.02;5.53;;;;;;;;;;5024042;28;20053;-67
2022/10/02 15:15:34;;;;;;;16.17;5.68;;;;;;;;;;5019456;28;20037;-67
2022/10/02 15:18:21;;;;;;;7.97;4.70;;;;;;;;;;5040702;28;20049;-67
2022/10/02 15:20:51;;;;;;;13.85;4.85;;;;;;;;;;5031889;28;20079;-67
2022/10/02 15:23:31;;;;;;;15.48;5.65;;;;;;;;;;5037532;28;20062;-67
2022/10/02 15:26:34;;;;;;;16.15;5.15;;;;;;;;;;5035667;28;20016;-67
2022/10/02 15:29:34;;;;;;;13.77;5.22;;;;;;;;;;5044909;28;20243;-67
2022/10/02 15:32:25;;;;;;;10.40;5.13;;;;;;;;;;5028846;28;20040;-67
2022/10/02 15:34:53;;;;;;;8.40;5.13;;;;;;;;;;5037489;28;20051;-67
2022/10/02 15:37:37;;;;;;;12.50;4.70;;;;;;;;;;5039359;28;20056;-65
2022/10/02 15:40:07;;;;;;;6.72;4.13;;;;;;;;;;5041427;28;20047;-66
2022/10/02 15:42:38;;;;;;;12.57;4.80;;;;;;;;;;5036634;28;20033;-66
2022/10/02 15:45:16;;;;;;;14.02;4.55;;;;;;;;;;5025306;28;20041;-67
2022/10/02 15:48:00;;;;;;;18.30;4.68;;;;;;;;;;5040613;28;20045;-66
2022/10/02 15:50:44;;;;;;;8.77;3.97;;;;;;;;;;5041375;28;20545;-67
2022/10/02 15:53:35;;;;;;;10.90;4.30;;;;;;;;;;5046657;28;20059;-66
2022/10/02 15:56:13;;;;;;;11.55;4.97;;;;;;;;;;5013228;28;20721;-67
2022/10/02 15:59:04;;;;;;;9.73;4.82;;;;;;;;;;5042661;28;20041;-67
2022/10/02 16:01:43;;;;;;;12.68;4.88;;;;;;;;;;5048059;28;20128;-67
2022/10/02 16:04:33;;;;;;;9.55;4.35;;;;;;;;;;5047424;28;20037;-66
2022/10/02 16:07:20;;;;;;;8.65;4.20;;;;;;;;;;5045999;28;20037;-66
2022/10/02 16:10:16;;;;;;;14.32;4.78;;;;;;;;;;5046534;28;20562;-67